sensor_id;sensor_type;location;lat;lon;timestamp;temperature;humidity
31733;DHT22;18312;51.486;7.144;2022-08-11T00:01:44;19.80;75.20
31733;DHT22;18312;51.486;7.144;2022-08-11T00:04:17;19.80;75.80
31733;DHT22;18312;51.486;7.144;2022-08-11T00:06:45;19.70;76.70
31733;DHT22;18312;51.486;7.144;2022-08-11T00:09:15;19.70;78.70
31733;DHT22;18312;51.486;7.144;2022-08-11T00:11:50;19.60;79.60
31733;DHT22;18312;51.486;7.144;2022-08-11T00:14:19;19.50;81.50
31733;DHT22;18312;51.486;7.144;2022-08-11T00:16:54;19.40;83.30
31733;DHT22;18312;51.486;7.144;2022-08-11T00:19:25;19.40;85.90
31733;DHT22;18312;51.486;7.144;2022-08-11T00:21:58;19.30;88.00
31733;DHT22;18312;51.486;7.144;2022-08-11T00:24:31;19.30;89.90
31733;DHT22;18312;51.486;7.144;2022-08-11T00:26:58;19.10;91.20
31733;DHT22;18312;51.486;7.144;2022-08-11T00:29:25;19.10;92.30
31733;DHT22;18312;51.486;7.144;2022-08-11T00:31:54;19.10;93.30
31733;DHT22;18312;51.486;7.144;2022-08-11T00:34:27;19.10;93.90
31733;DHT22;18312;51.486;7.144;2022-08-11T00:36:58;19.00;94.50
31733;DHT22;18312;51.486;7.144;2022-08-11T00:39:26;19.00;95.20
31733;DHT22;18312;51.486;7.144;2022-08-11T00:42:08;19.10;94.70
31733;DHT22;18312;51.486;7.144;2022-08-11T00:44:44;19.10;94.60
31733;DHT22;18312;51.486;7.144;2022-08-11T00:47:23;19.00;94.90
31733;DHT22;18312;51.486;7.144;2022-08-11T00:50:03;19.00;95.30
31733;DHT22;18312;51.486;7.144;2022-08-11T00:52:54;18.80;95.70
31733;DHT22;18312;51.486;7.144;2022-08-11T00:55:43;18.70;96.20
31733;DHT22;18312;51.486;7.144;2022-08-11T00:58:46;18.70;96.80
31733;DHT22;18312;51.486;7.144;2022-08-11T01:01:32;18.60;97.30
31733;DHT22;18312;51.486;7.144;2022-08-11T01:07:37;18.50;98.20
31733;DHT22;18312;51.486;7.144;2022-08-11T01:10:22;18.40;98.70
31733;DHT22;18312;51.486;7.144;2022-08-11T01:13:07;18.30;99.00
31733;DHT22;18312;51.486;7.144;2022-08-11T01:15:57;18.20;99.30
31733;DHT22;18312;51.486;7.144;2022-08-11T01:19:04;18.20;99.60
31733;DHT22;18312;51.486;7.144;2022-08-11T01:28:47;17.80;99.90
31733;DHT22;18312;51.486;7.144;2022-08-11T01:38:00;17.60;99.90
31733;DHT22;18312;51.486;7.144;2022-08-11T01:40:54;17.60;99.90
31733;DHT22;18312;51.486;7.144;2022-08-11T01:46:53;17.40;99.90
31733;DHT22;18312;51.486;7.144;2022-08-11T01:49:34;17.40;99.90
31733;DHT22;18312;51.486;7.144;2022-08-11T01:52:10;17.50;99.90
31733;DHT22;18312;51.486;7.144;2022-08-11T01:54:48;17.40;99.90
31733;DHT22;18312;51.486;7.144;2022-08-11T01:57:27;17.30;99.90
31733;DHT22;18312;51.486;7.144;2022-08-11T02:00:05;17.20;99.90
31733;DHT22;18312;51.486;7.144;2022-08-11T02:02:45;17.20;99.90
31733;DHT22;18312;51.486;7.144;2022-08-11T02:05:40;17.10;99.90
31733;DHT22;18312;51.486;7.144;2022-08-11T02:08:22;17.00;99.90
31733;DHT22;18312;51.486;7.144;2022-08-11T02:10:56;17.10;99.90
31733;DHT22;18312;51.486;7.144;2022-08-11T02:13:45;17.10;99.90
31733;DHT22;18312;51.486;7.144;2022-08-11T02:16:20;17.10;99.90
31733;DHT22;18312;51.486;7.144;2022-08-11T02:18:51;17.10;99.90
31733;DHT22;18312;51.486;7.144;2022-08-11T02:21:43;17.10;99.90
31733;DHT22;18312;51.486;7.144;2022-08-11T02:24:33;17.10;99.90
31733;DHT22;18312;51.486;7.144;2022-08-11T02:27:06;17.30;99.90
31733;DHT22;18312;51.486;7.144;2022-08-11T02:29:37;17.30;99.90
31733;DHT22;18312;51.486;7.144;2022-08-11T02:32:13;17.20;99.90
31733;DHT22;18312;51.486;7.144;2022-08-11T02:35:03;17.10;99.90
31733;DHT22;18312;51.486;7.144;2022-08-11T02:37:40;17.20;99.90
31733;DHT22;18312;51.486;7.144;2022-08-11T02:40:17;17.10;99.90
31733;DHT22;18312;51.486;7.144;2022-08-11T02:43:08;17.00;99.90
31733;DHT22;18312;51.486;7.144;2022-08-11T02:45:44;16.90;99.90
31733;DHT22;18312;51.486;7.144;2022-08-11T02:48:20;16.80;99.90
31733;DHT22;18312;51.486;7.144;2022-08-11T02:51:13;16.80;99.90
31733;DHT22;18312;51.486;7.144;2022-08-11T02:53:46;16.70;99.90
31733;DHT22;18312;51.486;7.144;2022-08-11T02:56:20;16.80;99.90
31733;DHT22;18312;51.486;7.144;2022-08-11T02:59:00;16.70;99.90
31733;DHT22;18312;51.486;7.144;2022-08-11T03:01:58;16.60;99.90
31733;DHT22;18312;51.486;7.144;2022-08-11T03:04:36;16.50;99.90
31733;DHT22;18312;51.486;7.144;2022-08-11T03:07:20;16.40;99.90
31733;DHT22;18312;51.486;7.144;2022-08-11T03:09:54;16.30;99.90
31733;DHT22;18312;51.486;7.144;2022-08-11T03:12:28;16.20;99.90
31733;DHT22;18312;51.486;7.144;2022-08-11T03:15:17;16.20;99.90
31733;DHT22;18312;51.486;7.144;2022-08-11T03:18:17;16.20;99.90
31733;DHT22;18312;51.486;7.144;2022-08-11T03:20:55;16.20;99.90
31733;DHT22;18312;51.486;7.144;2022-08-11T03:23:28;16.30;99.90
31733;DHT22;18312;51.486;7.144;2022-08-11T03:26:01;16.20;99.90
31733;DHT22;18312;51.486;7.144;2022-08-11T03:28:35;16.30;99.90
31733;DHT22;18312;51.486;7.144;2022-08-11T03:31:17;16.30;99.90
31733;DHT22;18312;51.486;7.144;2022-08-11T03:33:52;16.20;99.90
31733;DHT22;18312;51.486;7.144;2022-08-11T03:36:53;16.20;99.90
31733;DHT22;18312;51.486;7.144;2022-08-11T03:39:32;16.10;99.90
31733;DHT22;18312;51.486;7.144;2022-08-11T03:42:14;15.90;99.90
31733;DHT22;18312;51.486;7.144;2022-08-11T03:45:00;15.80;99.90
31733;DHT22;18312;51.486;7.144;2022-08-11T03:47:48;15.70;99.90
31733;DHT22;18312;51.486;7.144;2022-08-11T03:50:28;15.70;99.90
31733;DHT22;18312;51.486;7.144;2022-08-11T03:53:08;15.70;99.90
31733;DHT22;18312;51.486;7.144;2022-08-11T03:56:05;15.70;99.90
31733;DHT22;18312;51.486;7.144;2022-08-11T03:58:59;15.80;99.90
31733;DHT22;18312;51.486;7.144;2022-08-11T04:02:16;15.80;99.90
31733;DHT22;18312;51.486;7.144;2022-08-11T04:05:30;15.70;99.90
31733;DHT22;18312;51.486;7.144;2022-08-11T04:14:30;15.40;99.90
31733;DHT22;18312;51.486;7.144;2022-08-11T04:18:03;15.30;99.90
31733;DHT22;18312;51.486;7.144;2022-08-11T04:20:50;15.40;99.90
31733;DHT22;18312;51.486;7.144;2022-08-11T04:30:05;15.50;99.90
31733;DHT22;18312;51.486;7.144;2022-08-11T04:32:46;15.50;99.90
31733;DHT22;18312;51.486;7.144;2022-08-11T04:35:31;15.60;99.90
31733;DHT22;18312;51.486;7.144;2022-08-11T04:38:26;15.60;99.90
31733;DHT22;18312;51.486;7.144;2022-08-11T04:41:22;15.60;99.90
31733;DHT22;18312;51.486;7.144;2022-08-11T04:44:28;15.60;99.90
31733;DHT22;18312;51.486;7.144;2022-08-11T04:47:12;15.70;99.90
31733;DHT22;18312;51.486;7.144;2022-08-11T04:50:14;15.70;99.90
31733;DHT22;18312;51.486;7.144;2022-08-11T04:53:28;15.70;99.90
31733;DHT22;18312;51.486;7.144;2022-08-11T04:56:15;15.80;99.90
31733;DHT22;18312;51.486;7.144;2022-08-11T04:59:22;15.70;99.90
31733;DHT22;18312;51.486;7.144;2022-08-11T05:02:50;15.70;99.90
31733;DHT22;18312;51.486;7.144;2022-08-11T05:05:34;15.90;99.90
31733;DHT22;18312;51.486;7.144;2022-08-11T05:08:34;16.10;99.90
31733;DHT22;18312;51.486;7.144;2022-08-11T05:11:29;16.00;99.90
31733;DHT22;18312;51.486;7.144;2022-08-11T05:14:21;16.00;99.90
31733;DHT22;18312;51.486;7.144;2022-08-11T05:17:12;16.00;99.90
31733;DHT22;18312;51.486;7.144;2022-08-11T05:19:57;16.00;99.90
31733;DHT22;18312;51.486;7.144;2022-08-11T05:22:46;16.20;99.90
31733;DHT22;18312;51.486;7.144;2022-08-11T05:25:34;16.30;99.90
31733;DHT22;18312;51.486;7.144;2022-08-11T05:28:30;16.30;99.90
31733;DHT22;18312;51.486;7.144;2022-08-11T05:31:17;16.40;99.90
31733;DHT22;18312;51.486;7.144;2022-08-11T05:34:09;16.40;99.90
31733;DHT22;18312;51.486;7.144;2022-08-11T05:36:59;16.50;99.90
31733;DHT22;18312;51.486;7.144;2022-08-11T05:39:37;16.60;99.90
31733;DHT22;18312;51.486;7.144;2022-08-11T05:42:24;16.70;99.90
31733;DHT22;18312;51.486;7.144;2022-08-11T05:45:12;16.70;99.90
31733;DHT22;18312;51.486;7.144;2022-08-11T05:47:58;16.80;99.90
31733;DHT22;18312;51.486;7.144;2022-08-11T05:50:50;16.90;99.90
31733;DHT22;18312;51.486;7.144;2022-08-11T05:53:46;17.10;99.90
31733;DHT22;18312;51.486;7.144;2022-08-11T05:56:41;17.90;99.90
31733;DHT22;18312;51.486;7.144;2022-08-11T05:59:13;19.40;99.90
31733;DHT22;18312;51.486;7.144;2022-08-11T06:01:42;19.00;99.90
31733;DHT22;18312;51.486;7.144;2022-08-11T06:04:15;19.30;99.90
31733;DHT22;18312;51.486;7.144;2022-08-11T06:06:54;19.10;99.90
31733;DHT22;18312;51.486;7.144;2022-08-11T06:09:27;19.30;99.90
31733;DHT22;18312;51.486;7.144;2022-08-11T06:12:03;19.30;99.90
31733;DHT22;18312;51.486;7.144;2022-08-11T06:14:32;19.10;99.90
31733;DHT22;18312;51.486;7.144;2022-08-11T06:17:02;19.20;99.90
31733;DHT22;18312;51.486;7.144;2022-08-11T06:19:34;19.60;99.90
31733;DHT22;18312;51.486;7.144;2022-08-11T06:22:03;20.40;99.60
31733;DHT22;18312;51.486;7.144;2022-08-11T06:24:31;20.40;99.50
31733;DHT22;18312;51.486;7.144;2022-08-11T06:26:59;20.00;99.90
31733;DHT22;18312;51.486;7.144;2022-08-11T06:29:27;20.20;99.90
31733;DHT22;18312;51.486;7.144;2022-08-11T06:31:57;20.20;99.90
31733;DHT22;18312;51.486;7.144;2022-08-11T06:37:20;20.40;99.90
31733;DHT22;18312;51.486;7.144;2022-08-11T06:39:55;21.10;97.90
31733;DHT22;18312;51.486;7.144;2022-08-11T06:42:37;21.20;98.30
31733;DHT22;18312;51.486;7.144;2022-08-11T06:45:09;21.00;94.40
31733;DHT22;18312;51.486;7.144;2022-08-11T06:47:44;21.10;94.80
31733;DHT22;18312;51.486;7.144;2022-08-11T06:50:16;21.20;94.90
31733;DHT22;18312;51.486;7.144;2022-08-11T06:53:03;21.30;94.20
31733;DHT22;18312;51.486;7.144;2022-08-11T06:55:33;21.50;92.90
31733;DHT22;18312;51.486;7.144;2022-08-11T06:58:31;21.60;92.30
31733;DHT22;18312;51.486;7.144;2022-08-11T07:01:27;21.70;92.20
31733;DHT22;18312;51.486;7.144;2022-08-11T07:04:03;22.00;92.60
31733;DHT22;18312;51.486;7.144;2022-08-11T07:07:00;22.50;91.10
31733;DHT22;18312;51.486;7.144;2022-08-11T07:10:20;23.20;88.20
31733;DHT22;18312;51.486;7.144;2022-08-11T07:13:08;23.30;86.10
31733;DHT22;18312;51.486;7.144;2022-08-11T07:15:55;23.20;86.00
31733;DHT22;18312;51.486;7.144;2022-08-11T07:18:25;24.00;81.10
31733;DHT22;18312;51.486;7.144;2022-08-11T07:21:15;25.90;71.80
31733;DHT22;18312;51.486;7.144;2022-08-11T07:24:10;24.90;72.00
31733;DHT22;18312;51.486;7.144;2022-08-11T07:26:57;24.10;75.20
31733;DHT22;18312;51.486;7.144;2022-08-11T07:29:45;23.60;76.20
31733;DHT22;18312;51.486;7.144;2022-08-11T07:32:16;23.40;76.30
31733;DHT22;18312;51.486;7.144;2022-08-11T07:34:50;23.30;76.50
31733;DHT22;18312;51.486;7.144;2022-08-11T07:37:22;23.40;76.80
31733;DHT22;18312;51.486;7.144;2022-08-11T07:39:50;23.40;76.40
31733;DHT22;18312;51.486;7.144;2022-08-11T07:42:21;23.40;75.70
31733;DHT22;18312;51.486;7.144;2022-08-11T07:44:49;23.40;76.10
31733;DHT22;18312;51.486;7.144;2022-08-11T07:47:34;23.50;75.30
31733;DHT22;18312;51.486;7.144;2022-08-11T07:50:20;23.50;75.80
31733;DHT22;18312;51.486;7.144;2022-08-11T07:53:06;23.60;75.20
31733;DHT22;18312;51.486;7.144;2022-08-11T07:55:33;23.50;74.60
31733;DHT22;18312;51.486;7.144;2022-08-11T07:58:03;23.60;75.50
31733;DHT22;18312;51.486;7.144;2022-08-11T08:00:49;23.80;75.10
31733;DHT22;18312;51.486;7.144;2022-08-11T08:03:35;24.00;74.10
31733;DHT22;18312;51.486;7.144;2022-08-11T08:06:20;24.10;74.20
31733;DHT22;18312;51.486;7.144;2022-08-11T08:09:07;24.20;73.30
31733;DHT22;18312;51.486;7.144;2022-08-11T08:11:52;24.20;73.20
31733;DHT22;18312;51.486;7.144;2022-08-11T08:14:37;24.30;71.90
31733;DHT22;18312;51.486;7.144;2022-08-11T08:17:23;24.40;72.90
31733;DHT22;18312;51.486;7.144;2022-08-11T08:20:11;24.40;72.70
31733;DHT22;18312;51.486;7.144;2022-08-11T08:22:39;24.60;70.10
31733;DHT22;18312;51.486;7.144;2022-08-11T08:25:08;24.70;69.70
31733;DHT22;18312;51.486;7.144;2022-08-11T08:27:36;24.90;70.40
31733;DHT22;18312;51.486;7.144;2022-08-11T08:30:05;25.00;69.40
31733;DHT22;18312;51.486;7.144;2022-08-11T08:32:50;25.00;69.40
31733;DHT22;18312;51.486;7.144;2022-08-11T08:35:18;25.20;69.00
31733;DHT22;18312;51.486;7.144;2022-08-11T08:37:48;25.20;67.50
31733;DHT22;18312;51.486;7.144;2022-08-11T08:40:18;25.20;67.90
31733;DHT22;18312;51.486;7.144;2022-08-11T08:42:48;25.40;68.20
31733;DHT22;18312;51.486;7.144;2022-08-11T08:45:18;25.60;66.90
31733;DHT22;18312;51.486;7.144;2022-08-11T08:47:50;25.60;66.10
31733;DHT22;18312;51.486;7.144;2022-08-11T08:50:20;25.60;66.80
31733;DHT22;18312;51.486;7.144;2022-08-11T08:52:52;25.90;66.50
31733;DHT22;18312;51.486;7.144;2022-08-11T08:55:22;26.20;65.80
31733;DHT22;18312;51.486;7.144;2022-08-11T08:57:50;26.90;63.40
31733;DHT22;18312;51.486;7.144;2022-08-11T09:00:18;26.90;61.40
31733;DHT22;18312;51.486;7.144;2022-08-11T09:02:46;26.70;61.60
31733;DHT22;18312;51.486;7.144;2022-08-11T09:05:16;26.70;61.70
31733;DHT22;18312;51.486;7.144;2022-08-11T09:07:44;26.60;60.50
31733;DHT22;18312;51.486;7.144;2022-08-11T09:10:13;26.50;59.80
31733;DHT22;18312;51.486;7.144;2022-08-11T09:12:44;26.70;61.10
31733;DHT22;18312;51.486;7.144;2022-08-11T09:15:11;26.80;60.20
31733;DHT22;18312;51.486;7.144;2022-08-11T09:17:42;26.80;59.70
31733;DHT22;18312;51.486;7.144;2022-08-11T09:20:12;26.70;58.00
31733;DHT22;18312;51.486;7.144;2022-08-11T09:22:41;26.80;58.80
31733;DHT22;18312;51.486;7.144;2022-08-11T09:25:27;27.00;57.70
31733;DHT22;18312;51.486;7.144;2022-08-11T09:28:17;27.30;57.70
31733;DHT22;18312;51.486;7.144;2022-08-11T09:30:48;27.50;56.40
31733;DHT22;18312;51.486;7.144;2022-08-11T09:33:18;27.50;55.80
31733;DHT22;18312;51.486;7.144;2022-08-11T09:35:47;27.60;56.30
31733;DHT22;18312;51.486;7.144;2022-08-11T09:38:17;28.00;56.00
31733;DHT22;18312;51.486;7.144;2022-08-11T09:41:04;28.90;54.70
31733;DHT22;18312;51.486;7.144;2022-08-11T09:43:36;29.50;52.20
31733;DHT22;18312;51.486;7.144;2022-08-11T09:46:25;29.90;51.70
31733;DHT22;18312;51.486;7.144;2022-08-11T09:48:54;29.80;52.30
31733;DHT22;18312;51.486;7.144;2022-08-11T09:51:24;30.20;50.30
31733;DHT22;18312;51.486;7.144;2022-08-11T09:53:51;32.20;48.90
31733;DHT22;18312;51.486;7.144;2022-08-11T09:56:21;32.80;45.60
31733;DHT22;18312;51.486;7.144;2022-08-11T09:59:09;32.40;46.00
31733;DHT22;18312;51.486;7.144;2022-08-11T10:01:42;31.70;46.00
31733;DHT22;18312;51.486;7.144;2022-08-11T10:04:14;30.90;46.90
31733;DHT22;18312;51.486;7.144;2022-08-11T10:06:44;30.60;47.90
31733;DHT22;18312;51.486;7.144;2022-08-11T10:09:41;30.90;48.40
31733;DHT22;18312;51.486;7.144;2022-08-11T10:12:13;30.70;47.90
31733;DHT22;18312;51.486;7.144;2022-08-11T10:14:46;30.00;47.00
31733;DHT22;18312;51.486;7.144;2022-08-11T10:17:33;29.80;46.60
31733;DHT22;18312;51.486;7.144;2022-08-11T10:20:02;30.10;46.70
31733;DHT22;18312;51.486;7.144;2022-08-11T10:22:33;30.30;46.20
31733;DHT22;18312;51.486;7.144;2022-08-11T10:25:18;30.30;45.90
31733;DHT22;18312;51.486;7.144;2022-08-11T10:28:07;30.30;45.20
31733;DHT22;18312;51.486;7.144;2022-08-11T10:30:36;30.70;46.20
31733;DHT22;18312;51.486;7.144;2022-08-11T10:33:21;30.90;47.10
31733;DHT22;18312;51.486;7.144;2022-08-11T10:36:06;30.40;46.40
31733;DHT22;18312;51.486;7.144;2022-08-11T10:38:34;30.20;46.40
31733;DHT22;18312;51.486;7.144;2022-08-11T10:41:01;30.30;46.20
31733;DHT22;18312;51.486;7.144;2022-08-11T10:43:47;30.10;46.00
31733;DHT22;18312;51.486;7.144;2022-08-11T10:46:15;30.10;46.40
31733;DHT22;18312;51.486;7.144;2022-08-11T10:49:00;30.30;46.00
31733;DHT22;18312;51.486;7.144;2022-08-11T10:51:28;30.90;45.80
31733;DHT22;18312;51.486;7.144;2022-08-11T10:54:14;31.00;46.20
31733;DHT22;18312;51.486;7.144;2022-08-11T10:56:59;30.80;46.00
31733;DHT22;18312;51.486;7.144;2022-08-11T10:59:44;30.60;45.90
31733;DHT22;18312;51.486;7.144;2022-08-11T11:02:13;30.70;46.30
31733;DHT22;18312;51.486;7.144;2022-08-11T11:04:51;30.90;46.50
31733;DHT22;18312;51.486;7.144;2022-08-11T11:07:27;31.00;45.80
31733;DHT22;18312;51.486;7.144;2022-08-11T11:09:57;30.50;46.00
31733;DHT22;18312;51.486;7.144;2022-08-11T11:12:27;30.20;46.30
31733;DHT22;18312;51.486;7.144;2022-08-11T11:15:17;30.10;46.20
31733;DHT22;18312;51.486;7.144;2022-08-11T11:18:06;30.20;46.70
31733;DHT22;18312;51.486;7.144;2022-08-11T11:20:40;30.50;46.40
31733;DHT22;18312;51.486;7.144;2022-08-11T11:23:13;31.20;46.00
31733;DHT22;18312;51.486;7.144;2022-08-11T11:26:20;31.30;45.70
31733;DHT22;18312;51.486;7.144;2022-08-11T11:29:02;31.00;46.10
31733;DHT22;18312;51.486;7.144;2022-08-11T11:31:39;30.50;45.20
31733;DHT22;18312;51.486;7.144;2022-08-11T11:34:20;30.50;46.30
31733;DHT22;18312;51.486;7.144;2022-08-11T11:36:51;30.50;46.30
31733;DHT22;18312;51.486;7.144;2022-08-11T11:39:20;31.20;44.90
31733;DHT22;18312;51.486;7.144;2022-08-11T11:41:49;31.70;44.80
31733;DHT22;18312;51.486;7.144;2022-08-11T11:44:19;32.20;44.80
31733;DHT22;18312;51.486;7.144;2022-08-11T11:46:47;32.10;45.60
31733;DHT22;18312;51.486;7.144;2022-08-11T11:49:17;31.80;44.80
31733;DHT22;18312;51.486;7.144;2022-08-11T11:51:45;31.30;44.40
31733;DHT22;18312;51.486;7.144;2022-08-11T11:54:13;32.10;44.60
31733;DHT22;18312;51.486;7.144;2022-08-11T11:56:41;32.50;45.30
31733;DHT22;18312;51.486;7.144;2022-08-11T11:59:11;32.20;44.40
31733;DHT22;18312;51.486;7.144;2022-08-11T12:01:56;32.10;44.20
31733;DHT22;18312;51.486;7.144;2022-08-11T12:04:25;31.90;44.00
31733;DHT22;18312;51.486;7.144;2022-08-11T12:06:52;32.20;43.30
31733;DHT22;18312;51.486;7.144;2022-08-11T12:09:40;32.10;44.10
31733;DHT22;18312;51.486;7.144;2022-08-11T12:12:07;31.70;44.40
31733;DHT22;18312;51.486;7.144;2022-08-11T12:14:52;31.80;44.30
31733;DHT22;18312;51.486;7.144;2022-08-11T12:17:20;31.70;43.90
31733;DHT22;18312;51.486;7.144;2022-08-11T12:19:48;31.80;44.90
31733;DHT22;18312;51.486;7.144;2022-08-11T12:22:16;32.30;44.40
31733;DHT22;18312;51.486;7.144;2022-08-11T12:25:01;32.10;43.40
31733;DHT22;18312;51.486;7.144;2022-08-11T12:27:45;33.20;42.80
31733;DHT22;18312;51.486;7.144;2022-08-11T12:30:13;33.40;43.50
31733;DHT22;18312;51.486;7.144;2022-08-11T12:32:41;33.40;43.40
31733;DHT22;18312;51.486;7.144;2022-08-11T12:35:13;33.70;43.50
31733;DHT22;18312;51.486;7.144;2022-08-11T12:37:44;33.80;42.70
31733;DHT22;18312;51.486;7.144;2022-08-11T12:40:12;33.30;43.20
31733;DHT22;18312;51.486;7.144;2022-08-11T12:43:00;32.70;42.90
31733;DHT22;18312;51.486;7.144;2022-08-11T12:45:46;32.70;43.70
31733;DHT22;18312;51.486;7.144;2022-08-11T12:48:17;32.40;43.80
31733;DHT22;18312;51.486;7.144;2022-08-11T12:51:06;32.40;43.20
31733;DHT22;18312;51.486;7.144;2022-08-11T12:53:53;32.00;43.70
31733;DHT22;18312;51.486;7.144;2022-08-11T12:56:23;32.20;43.70
31733;DHT22;18312;51.486;7.144;2022-08-11T12:59:08;32.50;43.10
31733;DHT22;18312;51.486;7.144;2022-08-11T13:01:53;33.20;42.70
31733;DHT22;18312;51.486;7.144;2022-08-11T13:04:38;33.60;42.50
31733;DHT22;18312;51.486;7.144;2022-08-11T13:07:22;33.70;42.60
31733;DHT22;18312;51.486;7.144;2022-08-11T13:09:50;33.90;42.40
31733;DHT22;18312;51.486;7.144;2022-08-11T13:12:18;33.50;42.20
31733;DHT22;18312;51.486;7.144;2022-08-11T13:15:04;32.60;43.00
31733;DHT22;18312;51.486;7.144;2022-08-11T13:17:32;32.40;43.50
31733;DHT22;18312;51.486;7.144;2022-08-11T13:19:59;32.20;43.50
31733;DHT22;18312;51.486;7.144;2022-08-11T13:22:29;32.90;43.40
31733;DHT22;18312;51.486;7.144;2022-08-11T13:24:57;33.80;42.80
31733;DHT22;18312;51.486;7.144;2022-08-11T13:27:24;33.10;42.40
31733;DHT22;18312;51.486;7.144;2022-08-11T13:29:51;33.00;43.30
31733;DHT22;18312;51.486;7.144;2022-08-11T13:32:41;33.40;42.90
31733;DHT22;18312;51.486;7.144;2022-08-11T13:35:11;33.20;42.60
31733;DHT22;18312;51.486;7.144;2022-08-11T13:37:41;32.80;42.40
31733;DHT22;18312;51.486;7.144;2022-08-11T13:40:11;32.60;42.50
31733;DHT22;18312;51.486;7.144;2022-08-11T13:42:38;33.00;42.50
31733;DHT22;18312;51.486;7.144;2022-08-11T13:45:07;33.40;42.40
31733;DHT22;18312;51.486;7.144;2022-08-11T13:47:36;33.30;42.20
31733;DHT22;18312;51.486;7.144;2022-08-11T13:50:04;33.70;41.70
31733;DHT22;18312;51.486;7.144;2022-08-11T13:52:32;33.20;42.20
31733;DHT22;18312;51.486;7.144;2022-08-11T13:55:01;32.70;41.60
31733;DHT22;18312;51.486;7.144;2022-08-11T13:57:30;32.60;41.60
31733;DHT22;18312;51.486;7.144;2022-08-11T13:59:59;33.20;42.00
31733;DHT22;18312;51.486;7.144;2022-08-11T14:02:37;33.30;41.60
31733;DHT22;18312;51.486;7.144;2022-08-11T14:05:09;33.20;41.10
31733;DHT22;18312;51.486;7.144;2022-08-11T14:07:38;33.70;41.40
31733;DHT22;18312;51.486;7.144;2022-08-11T14:10:11;33.70;40.40
31733;DHT22;18312;51.486;7.144;2022-08-11T14:12:40;33.40;40.90
31733;DHT22;18312;51.486;7.144;2022-08-11T14:15:30;33.30;41.00
31733;DHT22;18312;51.486;7.144;2022-08-11T14:18:02;33.20;40.90
31733;DHT22;18312;51.486;7.144;2022-08-11T14:20:31;33.60;41.00
31733;DHT22;18312;51.486;7.144;2022-08-11T14:23:23;32.80;40.40
31733;DHT22;18312;51.486;7.144;2022-08-11T14:25:52;33.00;40.70
31733;DHT22;18312;51.486;7.144;2022-08-11T14:28:37;33.10;40.50
31733;DHT22;18312;51.486;7.144;2022-08-11T14:31:06;33.40;40.90
31733;DHT22;18312;51.486;7.144;2022-08-11T14:33:35;33.30;41.00
31733;DHT22;18312;51.486;7.144;2022-08-11T14:36:03;32.70;40.60
31733;DHT22;18312;51.486;7.144;2022-08-11T14:38:32;32.70;40.80
31733;DHT22;18312;51.486;7.144;2022-08-11T14:41:00;32.20;40.90
31733;DHT22;18312;51.486;7.144;2022-08-11T14:43:45;32.00;41.10
31733;DHT22;18312;51.486;7.144;2022-08-11T14:46:30;32.00;41.00
31733;DHT22;18312;51.486;7.144;2022-08-11T14:49:16;32.40;40.90
31733;DHT22;18312;51.486;7.144;2022-08-11T14:51:43;32.60;40.60
31733;DHT22;18312;51.486;7.144;2022-08-11T14:54:11;32.10;40.60
31733;DHT22;18312;51.486;7.144;2022-08-11T14:56:58;32.40;40.50
31733;DHT22;18312;51.486;7.144;2022-08-11T14:59:25;32.90;40.80
31733;DHT22;18312;51.486;7.144;2022-08-11T15:01:52;32.80;40.40
31733;DHT22;18312;51.486;7.144;2022-08-11T15:04:37;32.70;40.60
31733;DHT22;18312;51.486;7.144;2022-08-11T15:07:04;32.70;40.80
31733;DHT22;18312;51.486;7.144;2022-08-11T15:09:32;32.60;40.40
31733;DHT22;18312;51.486;7.144;2022-08-11T15:12:00;32.70;40.30
31733;DHT22;18312;51.486;7.144;2022-08-11T15:14:41;33.20;39.70
31733;DHT22;18312;51.486;7.144;2022-08-11T15:17:27;32.90;39.50
31733;DHT22;18312;51.486;7.144;2022-08-11T15:19:56;32.60;40.00
31733;DHT22;18312;51.486;7.144;2022-08-11T15:22:41;32.80;39.90
31733;DHT22;18312;51.486;7.144;2022-08-11T15:25:26;32.70;40.10
31733;DHT22;18312;51.486;7.144;2022-08-11T15:27:55;32.90;39.70
31733;DHT22;18312;51.486;7.144;2022-08-11T15:30:41;33.40;39.90
31733;DHT22;18312;51.486;7.144;2022-08-11T15:33:27;34.30;39.70
31733;DHT22;18312;51.486;7.144;2022-08-11T15:36:13;35.50;38.90
31733;DHT22;18312;51.486;7.144;2022-08-11T15:39:01;36.10;38.40
31733;DHT22;18312;51.486;7.144;2022-08-11T15:41:32;36.60;38.10
31733;DHT22;18312;51.486;7.144;2022-08-11T15:44:20;36.70;37.40
31733;DHT22;18312;51.486;7.144;2022-08-11T15:47:06;36.00;38.00
31733;DHT22;18312;51.486;7.144;2022-08-11T15:49:36;35.80;38.30
31733;DHT22;18312;51.486;7.144;2022-08-11T15:52:07;36.20;38.60
31733;DHT22;18312;51.486;7.144;2022-08-11T15:54:38;35.70;38.50
31733;DHT22;18312;51.486;7.144;2022-08-11T15:57:07;36.20;38.40
31733;DHT22;18312;51.486;7.144;2022-08-11T15:59:57;36.10;38.50
31733;DHT22;18312;51.486;7.144;2022-08-11T16:02:43;35.20;38.20
31733;DHT22;18312;51.486;7.144;2022-08-11T16:05:25;34.80;38.50
31733;DHT22;18312;51.486;7.144;2022-08-11T16:07:52;34.10;38.80
31733;DHT22;18312;51.486;7.144;2022-08-11T16:10:20;33.40;39.20
31733;DHT22;18312;51.486;7.144;2022-08-11T16:12:51;32.90;39.30
31733;DHT22;18312;51.486;7.144;2022-08-11T16:15:41;32.20;39.30
31733;DHT22;18312;51.486;7.144;2022-08-11T16:18:29;31.70;40.10
31733;DHT22;18312;51.486;7.144;2022-08-11T16:21:05;31.40;40.60
31733;DHT22;18312;51.486;7.144;2022-08-11T16:23:33;31.00;40.30
31733;DHT22;18312;51.486;7.144;2022-08-11T16:26:01;31.20;41.00
31733;DHT22;18312;51.486;7.144;2022-08-11T16:28:30;31.10;40.30
31733;DHT22;18312;51.486;7.144;2022-08-11T16:31:01;31.00;40.70
31733;DHT22;18312;51.486;7.144;2022-08-11T16:33:30;30.80;40.60
31733;DHT22;18312;51.486;7.144;2022-08-11T16:35:57;30.70;40.60
31733;DHT22;18312;51.486;7.144;2022-08-11T16:38:42;30.70;41.00
31733;DHT22;18312;51.486;7.144;2022-08-11T16:41:11;30.70;41.30
31733;DHT22;18312;51.486;7.144;2022-08-11T16:43:42;30.80;41.20
31733;DHT22;18312;51.486;7.144;2022-08-11T16:46:29;30.60;40.90
31733;DHT22;18312;51.486;7.144;2022-08-11T16:49:17;30.60;40.70
31733;DHT22;18312;51.486;7.144;2022-08-11T16:51:46;30.60;41.00
31733;DHT22;18312;51.486;7.144;2022-08-11T16:54:13;30.50;41.20
31733;DHT22;18312;51.486;7.144;2022-08-11T16:56:44;30.50;41.00
31733;DHT22;18312;51.486;7.144;2022-08-11T16:59:16;30.40;40.90
31733;DHT22;18312;51.486;7.144;2022-08-11T17:01:55;30.40;40.80
31733;DHT22;18312;51.486;7.144;2022-08-11T17:04:32;30.40;41.10
31733;DHT22;18312;51.486;7.144;2022-08-11T17:07:20;30.50;41.00
31733;DHT22;18312;51.486;7.144;2022-08-11T17:10:06;30.40;40.80
31733;DHT22;18312;51.486;7.144;2022-08-11T17:12:54;30.30;40.80
31733;DHT22;18312;51.486;7.144;2022-08-11T17:15:36;30.30;41.00
31733;DHT22;18312;51.486;7.144;2022-08-11T17:18:23;30.40;41.30